Terminal Aerodrome Forecast
Issued by NWS

Home | Current Version | Previous Version | Text Only | Print | Product List | Glossary On
Versions: 1 2 3 4 5 6 7 8 9 10 11 12 13 14 15 16 17 18 19 20 21 22 23 24 25 26 27 28 29 30 31 32
000
FTUS43 KDLH 250100 AAA
TAFBRD
TAF AMD
KBRD 250103Z 2501/2524 13005KT 5SM -RA SCT040 OVC070
     FM250200 08004KT 5SM -RA OVC025
     FM250400 06004KT 3SM -RA BR OVC008
     FM251200 05007KT 2SM -RA BR OVC006
     FM252200 34006KT 3SM -RA BR OVC012=

USA.gov is the U.S. government's official web portal to all federal, state and local government web resources and services.